sensor_id;sensor_type;location;lat;lon;timestamp;temperature;humidity
69747;DHT22;57018;50.278;19.134;2023-03-01T00:00:47;-2.60;95.00
69747;DHT22;57018;50.278;19.134;2023-03-01T00:03:16;-2.60;95.50
69747;DHT22;57018;50.278;19.134;2023-03-01T00:05:47;-2.60;95.40
69747;DHT22;57018;50.278;19.134;2023-03-01T00:08:17;-2.70;95.70
69747;DHT22;57018;50.278;19.134;2023-03-01T00:10:47;-2.60;96.20
69747;DHT22;57018;50.278;19.134;2023-03-01T00:13:16;-2.60;96.10
69747;DHT22;57018;50.278;19.134;2023-03-01T00:15:46;-2.60;96.10
69747;DHT22;57018;50.278;19.134;2023-03-01T00:18:16;-2.70;96.00
69747;DHT22;57018;50.278;19.134;2023-03-01T00:20:52;-2.60;96.00
69747;DHT22;57018;50.278;19.134;2023-03-01T00:23:22;-2.60;96.50
69747;DHT22;57018;50.278;19.134;2023-03-01T00:25:53;-2.50;96.20
69747;DHT22;57018;50.278;19.134;2023-03-01T00:28:23;-2.50;95.80
69747;DHT22;57018;50.278;19.134;2023-03-01T00:30:53;-2.60;95.60
69747;DHT22;57018;50.278;19.134;2023-03-01T00:33:23;-2.70;95.50
69747;DHT22;57018;50.278;19.134;2023-03-01T00:35:53;-2.80;95.40
69747;DHT22;57018;50.278;19.134;2023-03-01T00:38:22;-2.90;95.60
69747;DHT22;57018;50.278;19.134;2023-03-01T00:40:52;-3.00;96.20
69747;DHT22;57018;50.278;19.134;2023-03-01T00:43:22;-3.10;98.00
69747;DHT22;57018;50.278;19.134;2023-03-01T00:45:52;-3.10;98.10
69747;DHT22;57018;50.278;19.134;2023-03-01T00:48:22;-3.10;97.90
69747;DHT22;57018;50.278;19.134;2023-03-01T00:50:52;-3.20;98.40
69747;DHT22;57018;50.278;19.134;2023-03-01T00:53:21;-3.20;97.70
69747;DHT22;57018;50.278;19.134;2023-03-01T00:55:51;-3.10;98.40
69747;DHT22;57018;50.278;19.134;2023-03-01T00:58:19;-3.20;98.30
69747;DHT22;57018;50.278;19.134;2023-03-01T01:00:49;-3.20;98.30
69747;DHT22;57018;50.278;19.134;2023-03-01T01:03:21;-3.30;98.60
69747;DHT22;57018;50.278;19.134;2023-03-01T01:05:53;-3.30;98.50
69747;DHT22;57018;50.278;19.134;2023-03-01T01:08:23;-3.30;98.70
69747;DHT22;57018;50.278;19.134;2023-03-01T01:10:53;-3.30;99.00
69747;DHT22;57018;50.278;19.134;2023-03-01T01:13:22;-3.40;99.90
69747;DHT22;57018;50.278;19.134;2023-03-01T01:15:52;-3.40;99.90
69747;DHT22;57018;50.278;19.134;2023-03-01T01:18:22;-3.40;99.60
69747;DHT22;57018;50.278;19.134;2023-03-01T01:20:52;-3.40;99.50
69747;DHT22;57018;50.278;19.134;2023-03-01T01:23:22;-3.40;99.90
69747;DHT22;57018;50.278;19.134;2023-03-01T01:25:51;-3.50;99.90
69747;DHT22;57018;50.278;19.134;2023-03-01T01:28:21;-3.50;99.90
69747;DHT22;57018;50.278;19.134;2023-03-01T01:30:51;-3.40;99.90
69747;DHT22;57018;50.278;19.134;2023-03-01T01:33:21;-3.40;99.90
69747;DHT22;57018;50.278;19.134;2023-03-01T01:35:51;-3.40;99.90
69747;DHT22;57018;50.278;19.134;2023-03-01T01:43:27;-3.40;99.90
69747;DHT22;57018;50.278;19.134;2023-03-01T01:48:36;-3.30;99.90
69747;DHT22;57018;50.278;19.134;2023-03-01T02:17:06;-3.10;99.90
69747;DHT22;57018;50.278;19.134;2023-03-01T02:34:43;-3.10;99.90
69747;DHT22;57018;50.278;19.134;2023-03-01T02:44:53;-3.20;99.10
69747;DHT22;57018;50.278;19.134;2023-03-01T02:47:23;-3.20;99.40
69747;DHT22;57018;50.278;19.134;2023-03-01T02:49:53;-3.20;99.00
69747;DHT22;57018;50.278;19.134;2023-03-01T02:55:11;-3.20;98.10
69747;DHT22;57018;50.278;19.134;2023-03-01T02:57:45;-3.40;98.50
69747;DHT22;57018;50.278;19.134;2023-03-01T03:05:22;-3.40;99.10
69747;DHT22;57018;50.278;19.134;2023-03-01T03:17:57;-3.30;99.10
69747;DHT22;57018;50.278;19.134;2023-03-01T03:22:59;-3.40;98.30
69747;DHT22;57018;50.278;19.134;2023-03-01T03:46:28;-3.40;99.20
69747;DHT22;57018;50.278;19.134;2023-03-01T03:59:20;-3.40;99.20
69747;DHT22;57018;50.278;19.134;2023-03-01T04:01:49;-3.40;98.50
69747;DHT22;57018;50.278;19.134;2023-03-01T04:04:19;-3.50;98.70
69747;DHT22;57018;50.278;19.134;2023-03-01T04:06:49;-3.50;98.80
69747;DHT22;57018;50.278;19.134;2023-03-01T04:09:19;-3.50;98.60
69747;DHT22;57018;50.278;19.134;2023-03-01T04:11:49;-3.50;99.10
69747;DHT22;57018;50.278;19.134;2023-03-01T04:14:18;-3.50;98.60
69747;DHT22;57018;50.278;19.134;2023-03-01T04:16:48;-3.50;98.30
69747;DHT22;57018;50.278;19.134;2023-03-01T04:19:18;-3.60;98.00
69747;DHT22;57018;50.278;19.134;2023-03-01T04:21:48;-3.50;98.10
69747;DHT22;57018;50.278;19.134;2023-03-01T04:24:18;-3.60;97.60
69747;DHT22;57018;50.278;19.134;2023-03-01T04:34:38;-3.70;99.30
69747;DHT22;57018;50.278;19.134;2023-03-01T04:37:07;-3.60;99.10
69747;DHT22;57018;50.278;19.134;2023-03-01T04:39:37;-3.60;98.20
69747;DHT22;57018;50.278;19.134;2023-03-01T04:44:45;-3.70;98.90
69747;DHT22;57018;50.278;19.134;2023-03-01T04:49:46;-3.60;98.40
69747;DHT22;57018;50.278;19.134;2023-03-01T04:52:14;-3.70;98.30
69747;DHT22;57018;50.278;19.134;2023-03-01T04:54:44;-3.80;98.90
69747;DHT22;57018;50.278;19.134;2023-03-01T04:57:13;-3.70;99.90
69747;DHT22;57018;50.278;19.134;2023-03-01T04:59:43;-3.70;99.90
69747;DHT22;57018;50.278;19.134;2023-03-01T05:02:13;-3.60;99.90
69747;DHT22;57018;50.278;19.134;2023-03-01T05:04:43;-3.60;99.40
69747;DHT22;57018;50.278;19.134;2023-03-01T05:07:13;-3.60;99.40
69747;DHT22;57018;50.278;19.134;2023-03-01T05:09:47;-3.70;99.70
69747;DHT22;57018;50.278;19.134;2023-03-01T05:12:17;-3.60;99.90
69747;DHT22;57018;50.278;19.134;2023-03-01T05:14:47;-3.70;99.80
69747;DHT22;57018;50.278;19.134;2023-03-01T05:17:17;-3.80;99.50
69747;DHT22;57018;50.278;19.134;2023-03-01T05:19:46;-3.80;99.60
69747;DHT22;57018;50.278;19.134;2023-03-01T05:22:16;-3.70;99.20
69747;DHT22;57018;50.278;19.134;2023-03-01T05:24:47;-3.80;99.90
69747;DHT22;57018;50.278;19.134;2023-03-01T05:27:17;-3.70;99.90
69747;DHT22;57018;50.278;19.134;2023-03-01T05:29:50;-3.70;99.90
69747;DHT22;57018;50.278;19.134;2023-03-01T05:32:20;-3.80;99.90
69747;DHT22;57018;50.278;19.134;2023-03-01T05:34:52;-3.70;99.90
69747;DHT22;57018;50.278;19.134;2023-03-01T05:37:21;-3.70;99.90
69747;DHT22;57018;50.278;19.134;2023-03-01T05:39:51;-3.60;99.90
69747;DHT22;57018;50.278;19.134;2023-03-01T05:42:21;-3.60;99.90
69747;DHT22;57018;50.278;19.134;2023-03-01T05:44:51;-3.70;99.90
69747;DHT22;57018;50.278;19.134;2023-03-01T05:47:21;-3.60;99.90
69747;DHT22;57018;50.278;19.134;2023-03-01T05:49:50;-3.50;99.90
69747;DHT22;57018;50.278;19.134;2023-03-01T05:52:20;-3.40;99.90
69747;DHT22;57018;50.278;19.134;2023-03-01T05:54:50;-3.30;99.90
69747;DHT22;57018;50.278;19.134;2023-03-01T05:57:18;-3.30;99.90
69747;DHT22;57018;50.278;19.134;2023-03-01T05:59:48;-3.20;99.90
69747;DHT22;57018;50.278;19.134;2023-03-01T06:02:18;-3.20;99.80
69747;DHT22;57018;50.278;19.134;2023-03-01T06:04:48;-3.30;99.00
69747;DHT22;57018;50.278;19.134;2023-03-01T06:07:18;-3.20;99.70
69747;DHT22;57018;50.278;19.134;2023-03-01T06:09:48;-3.20;99.20
69747;DHT22;57018;50.278;19.134;2023-03-01T06:12:18;-3.10;99.90
69747;DHT22;57018;50.278;19.134;2023-03-01T06:14:48;-2.90;99.80
69747;DHT22;57018;50.278;19.134;2023-03-01T06:17:18;-2.80;99.30
69747;DHT22;57018;50.278;19.134;2023-03-01T06:19:48;-2.80;99.10
69747;DHT22;57018;50.278;19.134;2023-03-01T06:22:17;-2.70;99.20
69747;DHT22;57018;50.278;19.134;2023-03-01T06:24:47;-2.60;98.90
69747;DHT22;57018;50.278;19.134;2023-03-01T06:27:17;-2.60;98.30
69747;DHT22;57018;50.278;19.134;2023-03-01T06:29:47;-2.40;98.60
69747;DHT22;57018;50.278;19.134;2023-03-01T06:32:17;-2.30;97.80
69747;DHT22;57018;50.278;19.134;2023-03-01T06:34:47;-2.40;97.30
69747;DHT22;57018;50.278;19.134;2023-03-01T06:37:17;-2.30;97.50
69747;DHT22;57018;50.278;19.134;2023-03-01T06:39:47;-2.10;97.40
69747;DHT22;57018;50.278;19.134;2023-03-01T06:42:16;-2.00;97.20
69747;DHT22;57018;50.278;19.134;2023-03-01T06:44:46;-1.90;96.90
69747;DHT22;57018;50.278;19.134;2023-03-01T06:47:16;-1.80;96.20
69747;DHT22;57018;50.278;19.134;2023-03-01T06:49:46;-1.80;95.20
69747;DHT22;57018;50.278;19.134;2023-03-01T06:52:16;-1.90;95.40
69747;DHT22;57018;50.278;19.134;2023-03-01T06:54:46;-1.80;95.20
69747;DHT22;57018;50.278;19.134;2023-03-01T06:57:16;-1.70;95.90
69747;DHT22;57018;50.278;19.134;2023-03-01T06:59:49;-1.60;95.70
69747;DHT22;57018;50.278;19.134;2023-03-01T07:02:19;-1.40;95.70
69747;DHT22;57018;50.278;19.134;2023-03-01T07:04:50;-1.30;94.80
69747;DHT22;57018;50.278;19.134;2023-03-01T07:07:19;-1.20;94.50
69747;DHT22;57018;50.278;19.134;2023-03-01T07:09:48;-1.00;94.60
69747;DHT22;57018;50.278;19.134;2023-03-01T07:12:18;-0.90;94.40
69747;DHT22;57018;50.278;19.134;2023-03-01T07:14:46;-0.80;93.30
69747;DHT22;57018;50.278;19.134;2023-03-01T07:17:16;-0.80;93.10
69747;DHT22;57018;50.278;19.134;2023-03-01T07:19:45;-0.70;93.30
69747;DHT22;57018;50.278;19.134;2023-03-01T07:22:15;-0.50;92.10
69747;DHT22;57018;50.278;19.134;2023-03-01T07:24:45;-0.40;91.00
69747;DHT22;57018;50.278;19.134;2023-03-01T07:27:15;-0.30;91.00
69747;DHT22;57018;50.278;19.134;2023-03-01T07:29:43;-0.10;91.20
69747;DHT22;57018;50.278;19.134;2023-03-01T07:32:13;0.00;89.50
69747;DHT22;57018;50.278;19.134;2023-03-01T07:34:43;0.10;90.30
69747;DHT22;57018;50.278;19.134;2023-03-01T07:37:16;0.20;89.90
69747;DHT22;57018;50.278;19.134;2023-03-01T07:39:49;0.40;90.30
69747;DHT22;57018;50.278;19.134;2023-03-01T07:42:19;0.50;90.60
69747;DHT22;57018;50.278;19.134;2023-03-01T07:44:49;0.60;90.10
69747;DHT22;57018;50.278;19.134;2023-03-01T07:47:18;0.70;89.70
69747;DHT22;57018;50.278;19.134;2023-03-01T07:49:48;0.80;88.60
69747;DHT22;57018;50.278;19.134;2023-03-01T07:52:18;0.80;88.30
69747;DHT22;57018;50.278;19.134;2023-03-01T07:54:48;0.80;87.10
69747;DHT22;57018;50.278;19.134;2023-03-01T07:57:18;0.90;86.70
69747;DHT22;57018;50.278;19.134;2023-03-01T07:59:48;1.00;87.20
69747;DHT22;57018;50.278;19.134;2023-03-01T08:02:18;0.90;86.60
69747;DHT22;57018;50.278;19.134;2023-03-01T08:04:50;0.90;82.80
69747;DHT22;57018;50.278;19.134;2023-03-01T08:07:19;0.90;84.20
69747;DHT22;57018;50.278;19.134;2023-03-01T08:09:50;1.00;82.60
69747;DHT22;57018;50.278;19.134;2023-03-01T08:12:22;1.30;83.20
69747;DHT22;57018;50.278;19.134;2023-03-01T08:14:52;1.00;83.20
69747;DHT22;57018;50.278;19.134;2023-03-01T08:17:22;1.10;82.90
69747;DHT22;57018;50.278;19.134;2023-03-01T08:19:52;1.20;82.90
69747;DHT22;57018;50.278;19.134;2023-03-01T08:22:22;1.40;83.10
69747;DHT22;57018;50.278;19.134;2023-03-01T08:24:52;1.70;82.10
69747;DHT22;57018;50.278;19.134;2023-03-01T08:27:24;1.60;82.00
69747;DHT22;57018;50.278;19.134;2023-03-01T08:29:54;1.80;81.70
69747;DHT22;57018;50.278;19.134;2023-03-01T08:32:24;2.20;81.90
69747;DHT22;57018;50.278;19.134;2023-03-01T08:34:54;2.10;80.90
69747;DHT22;57018;50.278;19.134;2023-03-01T08:37:24;2.20;80.80
69747;DHT22;57018;50.278;19.134;2023-03-01T08:39:54;2.40;79.30
69747;DHT22;57018;50.278;19.134;2023-03-01T08:42:24;2.50;78.60
69747;DHT22;57018;50.278;19.134;2023-03-01T08:44:54;2.60;78.20
69747;DHT22;57018;50.278;19.134;2023-03-01T08:47:25;2.70;77.60
69747;DHT22;57018;50.278;19.134;2023-03-01T08:49:55;2.80;77.40
69747;DHT22;57018;50.278;19.134;2023-03-01T08:52:25;3.20;77.30
69747;DHT22;57018;50.278;19.134;2023-03-01T08:54:56;3.20;72.80
69747;DHT22;57018;50.278;19.134;2023-03-01T08:57:26;3.20;72.40
69747;DHT22;57018;50.278;19.134;2023-03-01T08:59:56;3.30;71.20
69747;DHT22;57018;50.278;19.134;2023-03-01T09:02:26;3.40;70.90
69747;DHT22;57018;50.278;19.134;2023-03-01T09:04:56;3.30;68.70
69747;DHT22;57018;50.278;19.134;2023-03-01T09:07:27;3.60;68.80
69747;DHT22;57018;50.278;19.134;2023-03-01T09:09:58;3.70;68.80
69747;DHT22;57018;50.278;19.134;2023-03-01T09:12:28;3.50;68.00
69747;DHT22;57018;50.278;19.134;2023-03-01T09:14:57;3.60;67.80
69747;DHT22;57018;50.278;19.134;2023-03-01T09:17:27;3.80;67.20
69747;DHT22;57018;50.278;19.134;2023-03-01T09:19:57;3.70;65.20
69747;DHT22;57018;50.278;19.134;2023-03-01T09:22:28;3.70;64.90
69747;DHT22;57018;50.278;19.134;2023-03-01T09:24:58;3.60;66.10
69747;DHT22;57018;50.278;19.134;2023-03-01T09:27:28;3.80;66.10
69747;DHT22;57018;50.278;19.134;2023-03-01T09:29:58;3.70;65.50
69747;DHT22;57018;50.278;19.134;2023-03-01T09:32:26;3.80;65.70
69747;DHT22;57018;50.278;19.134;2023-03-01T09:34:56;3.90;65.40
69747;DHT22;57018;50.278;19.134;2023-03-01T09:37:36;4.00;65.40
69747;DHT22;57018;50.278;19.134;2023-03-01T09:40:10;4.20;64.40
69747;DHT22;57018;50.278;19.134;2023-03-01T09:42:52;4.10;62.30
69747;DHT22;57018;50.278;19.134;2023-03-01T09:45:25;4.10;62.30
69747;DHT22;57018;50.278;19.134;2023-03-01T09:47:56;4.10;62.90
69747;DHT22;57018;50.278;19.134;2023-03-01T09:50:29;4.20;62.30
69747;DHT22;57018;50.278;19.134;2023-03-01T09:53:03;4.30;62.60
69747;DHT22;57018;50.278;19.134;2023-03-01T09:55:42;4.40;60.90
69747;DHT22;57018;50.278;19.134;2023-03-01T09:58:37;4.40;60.10
69747;DHT22;57018;50.278;19.134;2023-03-01T10:01:21;4.30;60.10
69747;DHT22;57018;50.278;19.134;2023-03-01T10:04:04;4.50;60.40
69747;DHT22;57018;50.278;19.134;2023-03-01T10:06:36;4.50;61.50
69747;DHT22;57018;50.278;19.134;2023-03-01T10:09:10;4.60;61.00
69747;DHT22;57018;50.278;19.134;2023-03-01T10:11:44;4.70;60.00
69747;DHT22;57018;50.278;19.134;2023-03-01T10:14:33;4.90;59.90
69747;DHT22;57018;50.278;19.134;2023-03-01T10:17:08;4.90;59.00
69747;DHT22;57018;50.278;19.134;2023-03-01T10:19:43;5.20;59.20
69747;DHT22;57018;50.278;19.134;2023-03-01T10:22:16;5.10;58.90
69747;DHT22;57018;50.278;19.134;2023-03-01T10:24:50;5.30;58.60
69747;DHT22;57018;50.278;19.134;2023-03-01T10:27:24;5.10;57.00
69747;DHT22;57018;50.278;19.134;2023-03-01T10:30:01;5.30;57.40
69747;DHT22;57018;50.278;19.134;2023-03-01T10:32:35;5.40;57.50
69747;DHT22;57018;50.278;19.134;2023-03-01T10:35:18;5.30;57.50
69747;DHT22;57018;50.278;19.134;2023-03-01T10:38:02;5.40;57.60
69747;DHT22;57018;50.278;19.134;2023-03-01T10:40:32;5.60;57.20
69747;DHT22;57018;50.278;19.134;2023-03-01T10:43:04;5.60;57.30
69747;DHT22;57018;50.278;19.134;2023-03-01T10:45:36;5.70;57.00
69747;DHT22;57018;50.278;19.134;2023-03-01T10:48:13;5.50;55.90
69747;DHT22;57018;50.278;19.134;2023-03-01T10:50:47;5.70;56.10
69747;DHT22;57018;50.278;19.134;2023-03-01T10:53:29;5.60;56.00
69747;DHT22;57018;50.278;19.134;2023-03-01T10:56:03;5.70;56.40
69747;DHT22;57018;50.278;19.134;2023-03-01T10:58:36;5.70;56.30
69747;DHT22;57018;50.278;19.134;2023-03-01T11:01:24;5.80;55.50
69747;DHT22;57018;50.278;19.134;2023-03-01T11:04:10;5.80;54.60
69747;DHT22;57018;50.278;19.134;2023-03-01T11:06:41;5.90;54.90
69747;DHT22;57018;50.278;19.134;2023-03-01T11:09:20;5.90;54.30
69747;DHT22;57018;50.278;19.134;2023-03-01T11:11:54;6.10;54.20
69747;DHT22;57018;50.278;19.134;2023-03-01T11:14:27;6.00;54.50
69747;DHT22;57018;50.278;19.134;2023-03-01T11:17:17;6.00;54.00
69747;DHT22;57018;50.278;19.134;2023-03-01T11:20:03;5.90;54.50
69747;DHT22;57018;50.278;19.134;2023-03-01T11:22:35;5.90;54.10
69747;DHT22;57018;50.278;19.134;2023-03-01T11:25:13;6.20;54.30
69747;DHT22;57018;50.278;19.134;2023-03-01T11:27:45;6.20;53.90
69747;DHT22;57018;50.278;19.134;2023-03-01T11:30:20;6.10;53.30
69747;DHT22;57018;50.278;19.134;2023-03-01T11:35:41;5.80;52.60
69747;DHT22;57018;50.278;19.134;2023-03-01T11:38:18;5.90;51.50
69747;DHT22;57018;50.278;19.134;2023-03-01T11:40:52;6.20;52.50
69747;DHT22;57018;50.278;19.134;2023-03-01T11:43:33;6.30;51.90
69747;DHT22;57018;50.278;19.134;2023-03-01T11:46:28;6.30;51.50
69747;DHT22;57018;50.278;19.134;2023-03-01T11:49:10;6.50;52.00
69747;DHT22;57018;50.278;19.134;2023-03-01T11:51:51;6.50;50.70
69747;DHT22;57018;50.278;19.134;2023-03-01T11:54:37;6.40;51.00
69747;DHT22;57018;50.278;19.134;2023-03-01T11:57:18;6.40;51.50
69747;DHT22;57018;50.278;19.134;2023-03-01T12:00:21;6.30;50.90
69747;DHT22;57018;50.278;19.134;2023-03-01T12:03:20;6.20;51.20
69747;DHT22;57018;50.278;19.134;2023-03-01T12:06:19;6.10;50.20
69747;DHT22;57018;50.278;19.134;2023-03-01T12:09:04;6.00;50.40
69747;DHT22;57018;50.278;19.134;2023-03-01T12:11:53;6.30;50.60
69747;DHT22;57018;50.278;19.134;2023-03-01T12:14:46;6.30;50.70
69747;DHT22;57018;50.278;19.134;2023-03-01T12:17:41;6.40;50.80
69747;DHT22;57018;50.278;19.134;2023-03-01T12:20:30;6.50;51.00
69747;DHT22;57018;50.278;19.134;2023-03-01T12:23:34;6.40;50.30
69747;DHT22;57018;50.278;19.134;2023-03-01T12:26:13;6.60;50.50
69747;DHT22;57018;50.278;19.134;2023-03-01T12:28:56;6.60;49.30
69747;DHT22;57018;50.278;19.134;2023-03-01T12:31:52;6.70;49.20
69747;DHT22;57018;50.278;19.134;2023-03-01T12:34:37;6.50;49.00
69747;DHT22;57018;50.278;19.134;2023-03-01T12:37:23;6.40;47.90
69747;DHT22;57018;50.278;19.134;2023-03-01T12:40:23;6.50;49.20
69747;DHT22;57018;50.278;19.134;2023-03-01T12:43:04;6.60;49.70
69747;DHT22;57018;50.278;19.134;2023-03-01T12:48:39;6.50;47.30
69747;DHT22;57018;50.278;19.134;2023-03-01T12:51:14;6.90;47.00
69747;DHT22;57018;50.278;19.134;2023-03-01T12:53:46;6.60;48.10
69747;DHT22;57018;50.278;19.134;2023-03-01T12:56:19;6.70;47.70
69747;DHT22;57018;50.278;19.134;2023-03-01T12:58:55;6.60;47.20
69747;DHT22;57018;50.278;19.134;2023-03-01T13:01:36;6.80;47.50
69747;DHT22;57018;50.278;19.134;2023-03-01T13:04:24;6.80;47.50
69747;DHT22;57018;50.278;19.134;2023-03-01T13:07:10;6.60;47.50
69747;DHT22;57018;50.278;19.134;2023-03-01T13:09:43;6.80;47.20
69747;DHT22;57018;50.278;19.134;2023-03-01T13:12:48;6.90;47.30
69747;DHT22;57018;50.278;19.134;2023-03-01T13:15:30;6.60;46.80
69747;DHT22;57018;50.278;19.134;2023-03-01T13:18:02;6.60;46.40
69747;DHT22;57018;50.278;19.134;2023-03-01T13:20:48;6.70;45.90
69747;DHT22;57018;50.278;19.134;2023-03-01T13:23:29;6.50;45.60
69747;DHT22;57018;50.278;19.134;2023-03-01T13:26:06;6.90;46.10
69747;DHT22;57018;50.278;19.134;2023-03-01T13:34:45;6.80;45.70
69747;DHT22;57018;50.278;19.134;2023-03-01T13:37:24;6.70;45.10
69747;DHT22;57018;50.278;19.134;2023-03-01T13:39:59;6.70;45.60
69747;DHT22;57018;50.278;19.134;2023-03-01T13:42:43;6.70;45.70
69747;DHT22;57018;50.278;19.134;2023-03-01T13:45:21;6.70;46.00
69747;DHT22;57018;50.278;19.134;2023-03-01T13:47:56;6.60;46.10
69747;DHT22;57018;50.278;19.134;2023-03-01T13:50:31;6.90;45.80
69747;DHT22;57018;50.278;19.134;2023-03-01T13:53:04;6.80;46.60
69747;DHT22;57018;50.278;19.134;2023-03-01T13:55:41;6.80;45.00
69747;DHT22;57018;50.278;19.134;2023-03-01T13:58:20;6.70;45.00
69747;DHT22;57018;50.278;19.134;2023-03-01T14:00:54;6.90;45.10
69747;DHT22;57018;50.278;19.134;2023-03-01T14:03:24;6.90;45.20
69747;DHT22;57018;50.278;19.134;2023-03-01T14:06:04;6.80;43.50
69747;DHT22;57018;50.278;19.134;2023-03-01T14:08:37;6.80;43.80
69747;DHT22;57018;50.278;19.134;2023-03-01T14:11:18;6.70;42.80
69747;DHT22;57018;50.278;19.134;2023-03-01T14:14:13;6.70;42.80
69747;DHT22;57018;50.278;19.134;2023-03-01T14:16:52;6.80;43.50
69747;DHT22;57018;50.278;19.134;2023-03-01T14:19:27;6.80;43.60
69747;DHT22;57018;50.278;19.134;2023-03-01T14:22:15;6.70;44.20
69747;DHT22;57018;50.278;19.134;2023-03-01T14:24:49;6.80;43.40
69747;DHT22;57018;50.278;19.134;2023-03-01T14:27:20;6.70;43.10
69747;DHT22;57018;50.278;19.134;2023-03-01T14:29:58;6.70;43.20
69747;DHT22;57018;50.278;19.134;2023-03-01T14:32:30;6.80;43.00
69747;DHT22;57018;50.278;19.134;2023-03-01T14:35:01;6.70;43.10
69747;DHT22;57018;50.278;19.134;2023-03-01T14:37:33;6.70;43.60
69747;DHT22;57018;50.278;19.134;2023-03-01T14:40:19;6.60;43.40
69747;DHT22;57018;50.278;19.134;2023-03-01T14:42:50;6.80;43.70
69747;DHT22;57018;50.278;19.134;2023-03-01T14:45:21;6.70;43.90
69747;DHT22;57018;50.278;19.134;2023-03-01T14:47:51;6.90;44.30
69747;DHT22;57018;50.278;19.134;2023-03-01T14:50:25;6.70;44.10
69747;DHT22;57018;50.278;19.134;2023-03-01T14:52:58;6.70;44.80
69747;DHT22;57018;50.278;19.134;2023-03-01T14:55:33;6.70;44.40
69747;DHT22;57018;50.278;19.134;2023-03-01T14:58:09;6.70;44.80
69747;DHT22;57018;50.278;19.134;2023-03-01T15:00:50;6.50;44.50
69747;DHT22;57018;50.278;19.134;2023-03-01T15:03:27;6.40;44.60
69747;DHT22;57018;50.278;19.134;2023-03-01T15:06:00;6.80;45.20
69747;DHT22;57018;50.278;19.134;2023-03-01T15:08:32;6.70;44.40
69747;DHT22;57018;50.278;19.134;2023-03-01T15:11:02;6.60;44.70
69747;DHT22;57018;50.278;19.134;2023-03-01T15:13:34;6.70;44.70
69747;DHT22;57018;50.278;19.134;2023-03-01T15:16:10;6.40;45.00
69747;DHT22;57018;50.278;19.134;2023-03-01T15:18:45;6.50;45.20
69747;DHT22;57018;50.278;19.134;2023-03-01T15:21:20;6.40;45.20
69747;DHT22;57018;50.278;19.134;2023-03-01T15:23:50;6.40;44.70
69747;DHT22;57018;50.278;19.134;2023-03-01T15:26:28;6.30;45.20
69747;DHT22;57018;50.278;19.134;2023-03-01T15:29:00;6.30;45.00
69747;DHT22;57018;50.278;19.134;2023-03-01T15:31:33;6.10;45.40
69747;DHT22;57018;50.278;19.134;2023-03-01T15:34:25;6.10;45.40
69747;DHT22;57018;50.278;19.134;2023-03-01T15:36:57;6.10;45.30
69747;DHT22;57018;50.278;19.134;2023-03-01T15:39:39;6.10;45.10
69747;DHT22;57018;50.278;19.134;2023-03-01T15:42:12;6.20;45.10
69747;DHT22;57018;50.278;19.134;2023-03-01T15:44:45;6.20;45.10
69747;DHT22;57018;50.278;19.134;2023-03-01T15:47:27;6.10;45.10
69747;DHT22;57018;50.278;19.134;2023-03-01T15:49:59;5.90;43.50
69747;DHT22;57018;50.278;19.134;2023-03-01T15:52:32;6.00;44.30
69747;DHT22;57018;50.278;19.134;2023-03-01T15:55:14;6.00;44.10
69747;DHT22;57018;50.278;19.134;2023-03-01T15:57:44;6.00;43.90
69747;DHT22;57018;50.278;19.134;2023-03-01T16:00:16;5.70;44.10
69747;DHT22;57018;50.278;19.134;2023-03-01T16:02:46;5.70;44.10
69747;DHT22;57018;50.278;19.134;2023-03-01T16:05:22;5.80;43.80
69747;DHT22;57018;50.278;19.134;2023-03-01T16:07:53;5.50;44.30
69747;DHT22;57018;50.278;19.134;2023-03-01T16:10:23;5.50;43.80
69747;DHT22;57018;50.278;19.134;2023-03-01T16:12:53;5.50;44.00
69747;DHT22;57018;50.278;19.134;2023-03-01T16:15:27;5.40;42.90
69747;DHT22;57018;50.278;19.134;2023-03-01T16:17:57;5.20;42.90
69747;DHT22;57018;50.278;19.134;2023-03-01T16:20:28;5.30;42.40
69747;DHT22;57018;50.278;19.134;2023-03-01T16:23:00;5.00;42.30
69747;DHT22;57018;50.278;19.134;2023-03-01T16:25:31;5.10;41.50
69747;DHT22;57018;50.278;19.134;2023-03-01T16:28:02;4.90;41.00
69747;DHT22;57018;50.278;19.134;2023-03-01T16:30:38;4.90;40.90
69747;DHT22;57018;50.278;19.134;2023-03-01T16:33:08;4.70;41.30
69747;DHT22;57018;50.278;19.134;2023-03-01T16:35:41;4.70;41.70
69747;DHT22;57018;50.278;19.134;2023-03-01T16:38:12;4.60;41.90
69747;DHT22;57018;50.278;19.134;2023-03-01T16:40:48;4.60;42.00
69747;DHT22;57018;50.278;19.134;2023-03-01T16:43:19;4.70;42.60
69747;DHT22;57018;50.278;19.134;2023-03-01T16:45:49;4.60;43.20
69747;DHT22;57018;50.278;19.134;2023-03-01T16:48:20;4.50;43.80
69747;DHT22;57018;50.278;19.134;2023-03-01T16:50:58;4.40;44.20
69747;DHT22;57018;50.278;19.134;2023-03-01T16:53:29;4.20;44.70
69747;DHT22;57018;50.278;19.134;2023-03-01T16:55:59;4.10;44.80
69747;DHT22;57018;50.278;19.134;2023-03-01T16:58:30;3.90;45.20
69747;DHT22;57018;50.278;19.134;2023-03-01T17:01:05;3.90;46.10
69747;DHT22;57018;50.278;19.134;2023-03-01T17:03:35;3.80;46.50
69747;DHT22;57018;50.278;19.134;2023-03-01T17:06:07;3.60;46.90
69747;DHT22;57018;50.278;19.134;2023-03-01T17:08:36;3.60;47.70
69747;DHT22;57018;50.278;19.134;2023-03-01T17:11:08;3.40;47.40
69747;DHT22;57018;50.278;19.134;2023-03-01T17:13:39;3.50;48.50
69747;DHT22;57018;50.278;19.134;2023-03-01T17:16:11;3.30;48.70
69747;DHT22;57018;50.278;19.134;2023-03-01T17:18:41;3.40;49.20
69747;DHT22;57018;50.278;19.134;2023-03-01T17:21:11;3.40;49.50
69747;DHT22;57018;50.278;19.134;2023-03-01T17:23:43;3.40;49.90
69747;DHT22;57018;50.278;19.134;2023-03-01T17:26:13;3.20;50.20
69747;DHT22;57018;50.278;19.134;2023-03-01T17:28:44;3.30;50.30
69747;DHT22;57018;50.278;19.134;2023-03-01T17:31:20;3.40;50.90
69747;DHT22;57018;50.278;19.134;2023-03-01T17:33:50;3.10;50.80
69747;DHT22;57018;50.278;19.134;2023-03-01T17:36:20;3.10;52.00
69747;DHT22;57018;50.278;19.134;2023-03-01T17:38:57;3.00;52.20
69747;DHT22;57018;50.278;19.134;2023-03-01T17:41:28;2.80;52.20
69747;DHT22;57018;50.278;19.134;2023-03-01T17:44:01;2.90;52.50
69747;DHT22;57018;50.278;19.134;2023-03-01T17:46:34;2.70;53.00
69747;DHT22;57018;50.278;19.134;2023-03-01T17:49:04;2.80;53.00
69747;DHT22;57018;50.278;19.134;2023-03-01T17:59:59;2.50;52.90
69747;DHT22;57018;50.278;19.134;2023-03-01T18:02:29;2.40;53.30
69747;DHT22;57018;50.278;19.134;2023-03-01T18:05:07;2.20;54.00
69747;DHT22;57018;50.278;19.134;2023-03-01T18:07:37;2.20;54.10
69747;DHT22;57018;50.278;19.134;2023-03-01T18:10:09;2.00;54.90
69747;DHT22;57018;50.278;19.134;2023-03-01T18:12:40;1.80;56.40
69747;DHT22;57018;50.278;19.134;2023-03-01T18:20:33;1.90;56.00
69747;DHT22;57018;50.278;19.134;2023-03-01T18:25:49;1.80;57.00
69747;DHT22;57018;50.278;19.134;2023-03-01T18:28:20;1.60;57.20
69747;DHT22;57018;50.278;19.134;2023-03-01T18:30:57;1.50;57.60
69747;DHT22;57018;50.278;19.134;2023-03-01T18:33:28;1.60;57.60